KCOS/COS METAR and TAF weather

Enter ICAO airport designator
Station Type Date Time Source
KCOS METAR 2018/04/20 07:54 UTC NOAA

KCOS 200754Z 13011KT 10SM BKN250 07/M05 A2998 RMK AO2 SLP115 T00721050


Station Type Date Time Source
KCOS Decoded METAR 2018/04/20 07:54 UTC NOAA

COLORADO SPRINGS MUNI, CO, United States (KCOS) 38-49N 104-43W 1856M
Apr 20, 2018 - 03:54 AM EDT / 2018.04.20 0754 UTC
Wind: from the SE (130 degrees) at 13 MPH (11 KT):0
Visibility: 10 mile(s):0
Sky conditions: mostly cloudy
Temperature: 45.0 F (7.2 C)
Dew Point: 23.0 F (-5.0 C)
Relative Humidity: 41%
Pressure (altimeter): 29.98 in. Hg (1015 hPa)
ob: KCOS 200754Z 13011KT 10SM BKN250 07/M05 A2998 RMK AO2 SLP115 T00721050
cycle: 8

Station Type Date Time Source
KCOS TAF 2018/04/20 06:22 UTC NOAA

TAF KCOS 200520Z 2006/2106 12015KT P6SM SCT100 BKN250
FM200900 14014KT P6SM BKN080
FM201400 13015KT P6SM BKN025 OVC100
FM201600 14015G25KT P6SM VCSH BKN018
FM201800 13015G25KT P6SM -SHRA OVC015
FM202100 12012G22KT 5SM -SHRA OVC010
FM210100 12011KT 3SM -SHRASN OVC005


Example: see airport list